sensor_id;sensor_type;location;lat;lon;timestamp;temperature;humidity
15013;DHT22;7603;49.432;11.418;2023-09-18T00:00:40;17.00;99.90
15013;DHT22;7603;49.432;11.418;2023-09-18T00:03:08;17.00;99.90
15013;DHT22;7603;49.432;11.418;2023-09-18T00:05:34;17.00;99.90
15013;DHT22;7603;49.432;11.418;2023-09-18T00:08:00;17.10;99.90
15013;DHT22;7603;49.432;11.418;2023-09-18T00:10:28;17.30;99.90
15013;DHT22;7603;49.432;11.418;2023-09-18T00:12:57;17.30;99.90
15013;DHT22;7603;49.432;11.418;2023-09-18T00:15:22;17.40;99.90
15013;DHT22;7603;49.432;11.418;2023-09-18T00:17:48;17.40;99.90
15013;DHT22;7603;49.432;11.418;2023-09-18T00:20:14;17.60;99.90
15013;DHT22;7603;49.432;11.418;2023-09-18T00:22:42;17.60;99.90
15013;DHT22;7603;49.432;11.418;2023-09-18T00:25:08;17.70;99.90
15013;DHT22;7603;49.432;11.418;2023-09-18T00:27:33;17.80;99.90
15013;DHT22;7603;49.432;11.418;2023-09-18T00:30:04;17.80;99.90
15013;DHT22;7603;49.432;11.418;2023-09-18T00:32:30;17.90;99.90
15013;DHT22;7603;49.432;11.418;2023-09-18T00:34:56;17.90;99.90
15013;DHT22;7603;49.432;11.418;2023-09-18T00:37:21;18.00;99.90
15013;DHT22;7603;49.432;11.418;2023-09-18T00:39:47;18.00;99.90
15013;DHT22;7603;49.432;11.418;2023-09-18T00:42:14;18.00;99.90
15013;DHT22;7603;49.432;11.418;2023-09-18T00:44:41;18.00;99.90
15013;DHT22;7603;49.432;11.418;2023-09-18T00:47:08;18.10;99.90
15013;DHT22;7603;49.432;11.418;2023-09-18T00:49:34;18.10;99.90
15013;DHT22;7603;49.432;11.418;2023-09-18T00:52:01;18.10;99.90
15013;DHT22;7603;49.432;11.418;2023-09-18T00:54:27;18.00;99.90
15013;DHT22;7603;49.432;11.418;2023-09-18T00:56:53;18.00;99.90
15013;DHT22;7603;49.432;11.418;2023-09-18T00:59:21;18.00;99.90
15013;DHT22;7603;49.432;11.418;2023-09-18T01:01:48;18.00;99.90
15013;DHT22;7603;49.432;11.418;2023-09-18T01:04:16;18.00;99.90
15013;DHT22;7603;49.432;11.418;2023-09-18T01:06:41;18.00;99.90
15013;DHT22;7603;49.432;11.418;2023-09-18T01:09:07;17.90;99.90
15013;DHT22;7603;49.432;11.418;2023-09-18T01:17:09;17.90;99.90
15013;DHT22;7603;49.432;11.418;2023-09-18T01:19:43;17.90;99.90
15013;DHT22;7603;49.432;11.418;2023-09-18T01:22:16;17.90;99.90
15013;DHT22;7603;49.432;11.418;2023-09-18T01:24:44;17.90;99.90
15013;DHT22;7603;49.432;11.418;2023-09-18T01:27:12;17.80;99.90
15013;DHT22;7603;49.432;11.418;2023-09-18T01:29:46;17.80;99.90
15013;DHT22;7603;49.432;11.418;2023-09-18T01:32:12;17.80;99.90
15013;DHT22;7603;49.432;11.418;2023-09-18T01:34:46;17.80;99.90
15013;DHT22;7603;49.432;11.418;2023-09-18T01:37:13;17.70;99.90
15013;DHT22;7603;49.432;11.418;2023-09-18T01:39:39;17.70;99.90
15013;DHT22;7603;49.432;11.418;2023-09-18T01:42:06;17.70;99.90
15013;DHT22;7603;49.432;11.418;2023-09-18T01:44:33;17.70;99.90
15013;DHT22;7603;49.432;11.418;2023-09-18T01:47:00;17.70;99.90
15013;DHT22;7603;49.432;11.418;2023-09-18T01:49:31;17.70;99.90
15013;DHT22;7603;49.432;11.418;2023-09-18T01:51:57;17.70;99.90
15013;DHT22;7603;49.432;11.418;2023-09-18T01:54:23;17.70;99.90
15013;DHT22;7603;49.432;11.418;2023-09-18T01:56:49;17.70;99.90
15013;DHT22;7603;49.432;11.418;2023-09-18T01:59:14;17.70;99.90
15013;DHT22;7603;49.432;11.418;2023-09-18T02:01:40;17.60;99.90
15013;DHT22;7603;49.432;11.418;2023-09-18T02:04:05;17.60;99.90
15013;DHT22;7603;49.432;11.418;2023-09-18T02:06:31;17.60;99.90
15013;DHT22;7603;49.432;11.418;2023-09-18T02:08:57;17.60;99.90
15013;DHT22;7603;49.432;11.418;2023-09-18T02:11:22;17.60;99.90
15013;DHT22;7603;49.432;11.418;2023-09-18T02:13:48;17.50;99.90
15013;DHT22;7603;49.432;11.418;2023-09-18T02:16:13;17.50;99.90
15013;DHT22;7603;49.432;11.418;2023-09-18T02:18:39;17.50;99.90
15013;DHT22;7603;49.432;11.418;2023-09-18T02:21:04;17.50;99.90
15013;DHT22;7603;49.432;11.418;2023-09-18T02:23:30;17.40;99.90
15013;DHT22;7603;49.432;11.418;2023-09-18T02:25:59;17.40;99.90
15013;DHT22;7603;49.432;11.418;2023-09-18T02:28:25;17.40;99.90
15013;DHT22;7603;49.432;11.418;2023-09-18T02:30:51;17.40;99.90
15013;DHT22;7603;49.432;11.418;2023-09-18T02:33:17;17.40;99.90
15013;DHT22;7603;49.432;11.418;2023-09-18T02:35:42;17.30;99.90
15013;DHT22;7603;49.432;11.418;2023-09-18T02:38:09;17.30;99.90
15013;DHT22;7603;49.432;11.418;2023-09-18T02:40:34;17.30;99.90
15013;DHT22;7603;49.432;11.418;2023-09-18T02:43:00;17.20;99.90
15013;DHT22;7603;49.432;11.418;2023-09-18T02:45:27;17.20;99.90
15013;DHT22;7603;49.432;11.418;2023-09-18T02:47:53;17.20;99.90
15013;DHT22;7603;49.432;11.418;2023-09-18T02:50:19;17.20;99.90
15013;DHT22;7603;49.432;11.418;2023-09-18T02:52:44;17.20;99.90
15013;DHT22;7603;49.432;11.418;2023-09-18T02:55:10;17.20;99.90
15013;DHT22;7603;49.432;11.418;2023-09-18T02:57:36;17.10;99.90
15013;DHT22;7603;49.432;11.418;2023-09-18T03:00:02;17.10;99.90
15013;DHT22;7603;49.432;11.418;2023-09-18T03:02:28;17.10;99.90
15013;DHT22;7603;49.432;11.418;2023-09-18T03:04:55;17.10;99.90
15013;DHT22;7603;49.432;11.418;2023-09-18T03:07:21;17.10;99.90
15013;DHT22;7603;49.432;11.418;2023-09-18T03:09:47;17.10;99.90
15013;DHT22;7603;49.432;11.418;2023-09-18T03:12:13;17.00;99.90
15013;DHT22;7603;49.432;11.418;2023-09-18T03:14:38;17.00;99.90
15013;DHT22;7603;49.432;11.418;2023-09-18T03:17:05;17.00;99.90
15013;DHT22;7603;49.432;11.418;2023-09-18T03:19:30;17.00;99.90
15013;DHT22;7603;49.432;11.418;2023-09-18T03:21:56;17.00;99.90
15013;DHT22;7603;49.432;11.418;2023-09-18T03:24:21;17.00;99.90
15013;DHT22;7603;49.432;11.418;2023-09-18T03:26:47;17.00;99.90
15013;DHT22;7603;49.432;11.418;2023-09-18T03:29:14;17.00;99.90
15013;DHT22;7603;49.432;11.418;2023-09-18T03:31:40;17.10;99.90
15013;DHT22;7603;49.432;11.418;2023-09-18T03:34:05;17.10;99.90
15013;DHT22;7603;49.432;11.418;2023-09-18T03:36:31;17.10;99.90
15013;DHT22;7603;49.432;11.418;2023-09-18T03:38:57;17.20;99.90
15013;DHT22;7603;49.432;11.418;2023-09-18T03:41:22;17.20;99.90
15013;DHT22;7603;49.432;11.418;2023-09-18T03:43:48;17.30;99.90
15013;DHT22;7603;49.432;11.418;2023-09-18T03:46:14;17.30;99.90
15013;DHT22;7603;49.432;11.418;2023-09-18T03:48:40;17.30;99.90
15013;DHT22;7603;49.432;11.418;2023-09-18T03:51:06;17.30;99.90
15013;DHT22;7603;49.432;11.418;2023-09-18T03:53:33;17.30;99.90
15013;DHT22;7603;49.432;11.418;2023-09-18T03:56:00;17.30;99.90
15013;DHT22;7603;49.432;11.418;2023-09-18T03:58:26;17.20;99.90
15013;DHT22;7603;49.432;11.418;2023-09-18T04:00:52;17.20;99.90
15013;DHT22;7603;49.432;11.418;2023-09-18T04:03:18;17.20;99.90
15013;DHT22;7603;49.432;11.418;2023-09-18T04:05:44;17.20;99.90
15013;DHT22;7603;49.432;11.418;2023-09-18T04:08:10;17.20;99.90
15013;DHT22;7603;49.432;11.418;2023-09-18T04:10:36;17.20;99.90
15013;DHT22;7603;49.432;11.418;2023-09-18T04:13:02;17.20;99.90
15013;DHT22;7603;49.432;11.418;2023-09-18T04:15:28;17.20;99.90
15013;DHT22;7603;49.432;11.418;2023-09-18T04:17:56;17.20;99.90
15013;DHT22;7603;49.432;11.418;2023-09-18T04:20:21;17.20;99.90
15013;DHT22;7603;49.432;11.418;2023-09-18T04:26:03;17.20;99.90
15013;DHT22;7603;49.432;11.418;2023-09-18T04:28:28;17.20;99.90
15013;DHT22;7603;49.432;11.418;2023-09-18T04:30:54;17.10;99.90
15013;DHT22;7603;49.432;11.418;2023-09-18T04:33:19;17.20;99.90
15013;DHT22;7603;49.432;11.418;2023-09-18T04:35:47;17.20;99.90
15013;DHT22;7603;49.432;11.418;2023-09-18T04:38:15;17.20;99.90
15013;DHT22;7603;49.432;11.418;2023-09-18T04:40:41;17.30;99.90
15013;DHT22;7603;49.432;11.418;2023-09-18T04:43:06;17.30;99.90
15013;DHT22;7603;49.432;11.418;2023-09-18T04:45:32;17.30;99.90
15013;DHT22;7603;49.432;11.418;2023-09-18T04:47:58;17.40;99.90
15013;DHT22;7603;49.432;11.418;2023-09-18T04:50:24;17.40;99.90
15013;DHT22;7603;49.432;11.418;2023-09-18T04:52:51;17.40;99.90
15013;DHT22;7603;49.432;11.418;2023-09-18T04:55:17;17.40;99.90
15013;DHT22;7603;49.432;11.418;2023-09-18T04:57:43;17.40;99.90
15013;DHT22;7603;49.432;11.418;2023-09-18T05:00:09;17.50;99.90
15013;DHT22;7603;49.432;11.418;2023-09-18T05:02:38;17.40;99.90
15013;DHT22;7603;49.432;11.418;2023-09-18T05:05:04;17.40;99.90
15013;DHT22;7603;49.432;11.418;2023-09-18T05:07:30;17.40;99.90
15013;DHT22;7603;49.432;11.418;2023-09-18T05:09:56;17.40;99.90
15013;DHT22;7603;49.432;11.418;2023-09-18T05:12:22;17.30;99.90
15013;DHT22;7603;49.432;11.418;2023-09-18T05:14:48;17.30;99.90
15013;DHT22;7603;49.432;11.418;2023-09-18T05:17:15;17.30;99.90
15013;DHT22;7603;49.432;11.418;2023-09-18T05:19:42;17.40;99.90
15013;DHT22;7603;49.432;11.418;2023-09-18T05:22:10;17.60;99.90
15013;DHT22;7603;49.432;11.418;2023-09-18T05:24:38;17.70;99.90
15013;DHT22;7603;49.432;11.418;2023-09-18T05:27:04;17.80;99.90
15013;DHT22;7603;49.432;11.418;2023-09-18T05:29:31;17.90;99.90
15013;DHT22;7603;49.432;11.418;2023-09-18T05:31:57;18.10;99.90
15013;DHT22;7603;49.432;11.418;2023-09-18T05:34:23;18.20;99.90
15013;DHT22;7603;49.432;11.418;2023-09-18T05:36:48;18.30;99.90
15013;DHT22;7603;49.432;11.418;2023-09-18T05:39:14;18.40;99.90
15013;DHT22;7603;49.432;11.418;2023-09-18T05:41:40;18.60;99.90
15013;DHT22;7603;49.432;11.418;2023-09-18T05:44:06;18.70;99.90
15013;DHT22;7603;49.432;11.418;2023-09-18T05:46:34;18.80;99.90
15013;DHT22;7603;49.432;11.418;2023-09-18T05:49:00;18.90;99.90
15013;DHT22;7603;49.432;11.418;2023-09-18T05:51:26;18.90;99.90
15013;DHT22;7603;49.432;11.418;2023-09-18T05:53:52;19.00;99.90
15013;DHT22;7603;49.432;11.418;2023-09-18T05:56:18;19.00;99.90
15013;DHT22;7603;49.432;11.418;2023-09-18T05:58:43;19.10;99.90
15013;DHT22;7603;49.432;11.418;2023-09-18T06:01:09;19.10;99.90
15013;DHT22;7603;49.432;11.418;2023-09-18T06:03:35;19.20;99.90
15013;DHT22;7603;49.432;11.418;2023-09-18T06:06:05;19.20;99.90
15013;DHT22;7603;49.432;11.418;2023-09-18T06:08:31;19.30;99.90
15013;DHT22;7603;49.432;11.418;2023-09-18T06:10:57;19.40;99.90
15013;DHT22;7603;49.432;11.418;2023-09-18T06:13:24;19.40;99.90
15013;DHT22;7603;49.432;11.418;2023-09-18T06:15:51;19.50;99.90
15013;DHT22;7603;49.432;11.418;2023-09-18T06:18:18;19.60;99.90
15013;DHT22;7603;49.432;11.418;2023-09-18T06:20:46;19.80;99.90
15013;DHT22;7603;49.432;11.418;2023-09-18T06:23:12;19.90;99.90
15013;DHT22;7603;49.432;11.418;2023-09-18T06:25:38;20.10;99.90
15013;DHT22;7603;49.432;11.418;2023-09-18T06:28:04;20.20;99.90
15013;DHT22;7603;49.432;11.418;2023-09-18T06:30:30;20.40;99.90
15013;DHT22;7603;49.432;11.418;2023-09-18T06:32:56;20.40;99.90
15013;DHT22;7603;49.432;11.418;2023-09-18T06:35:22;20.50;99.90
15013;DHT22;7603;49.432;11.418;2023-09-18T06:37:47;20.60;99.90
15013;DHT22;7603;49.432;11.418;2023-09-18T06:40:13;20.60;99.90
15013;DHT22;7603;49.432;11.418;2023-09-18T06:42:39;20.70;99.90
15013;DHT22;7603;49.432;11.418;2023-09-18T06:45:06;20.70;99.90
15013;DHT22;7603;49.432;11.418;2023-09-18T06:47:35;20.70;99.90
15013;DHT22;7603;49.432;11.418;2023-09-18T06:50:00;20.60;99.90
15013;DHT22;7603;49.432;11.418;2023-09-18T06:52:28;20.60;99.90
15013;DHT22;7603;49.432;11.418;2023-09-18T06:54:53;20.60;99.90
15013;DHT22;7603;49.432;11.418;2023-09-18T06:57:19;20.80;99.90
15013;DHT22;7603;49.432;11.418;2023-09-18T06:59:46;20.90;99.90
15013;DHT22;7603;49.432;11.418;2023-09-18T07:02:12;21.10;99.90
15013;DHT22;7603;49.432;11.418;2023-09-18T07:04:40;21.30;99.90
15013;DHT22;7603;49.432;11.418;2023-09-18T07:07:13;21.50;99.90
15013;DHT22;7603;49.432;11.418;2023-09-18T07:09:40;21.70;99.90
15013;DHT22;7603;49.432;11.418;2023-09-18T07:12:07;21.80;99.90
15013;DHT22;7603;49.432;11.418;2023-09-18T07:14:33;21.90;99.90
15013;DHT22;7603;49.432;11.418;2023-09-18T07:16:59;21.90;99.90
15013;DHT22;7603;49.432;11.418;2023-09-18T07:19:26;21.90;99.90
15013;DHT22;7603;49.432;11.418;2023-09-18T07:21:52;21.90;99.90
15013;DHT22;7603;49.432;11.418;2023-09-18T07:24:17;22.00;99.90
15013;DHT22;7603;49.432;11.418;2023-09-18T07:26:47;22.10;99.90
15013;DHT22;7603;49.432;11.418;2023-09-18T07:29:14;22.20;99.90
15013;DHT22;7603;49.432;11.418;2023-09-18T07:31:41;22.40;99.90
15013;DHT22;7603;49.432;11.418;2023-09-18T07:34:07;22.60;99.90
15013;DHT22;7603;49.432;11.418;2023-09-18T07:36:32;22.80;99.90
15013;DHT22;7603;49.432;11.418;2023-09-18T07:38:58;23.10;99.90
15013;DHT22;7603;49.432;11.418;2023-09-18T07:41:24;23.30;99.90
15013;DHT22;7603;49.432;11.418;2023-09-18T07:43:50;23.30;99.40
15013;DHT22;7603;49.432;11.418;2023-09-18T07:46:16;23.60;99.00
15013;DHT22;7603;49.432;11.418;2023-09-18T07:48:41;23.80;98.00
15013;DHT22;7603;49.432;11.418;2023-09-18T07:51:11;23.90;97.10
15013;DHT22;7603;49.432;11.418;2023-09-18T07:53:36;24.00;96.20
15013;DHT22;7603;49.432;11.418;2023-09-18T07:56:03;24.10;95.50
15013;DHT22;7603;49.432;11.418;2023-09-18T07:58:30;24.10;95.50
15013;DHT22;7603;49.432;11.418;2023-09-18T08:00:56;24.20;95.10
15013;DHT22;7603;49.432;11.418;2023-09-18T08:03:23;24.30;94.90
15013;DHT22;7603;49.432;11.418;2023-09-18T08:05:51;24.50;94.60
15013;DHT22;7603;49.432;11.418;2023-09-18T08:08:18;24.70;93.10
15013;DHT22;7603;49.432;11.418;2023-09-18T08:10:46;24.90;92.80
15013;DHT22;7603;49.432;11.418;2023-09-18T08:13:12;25.00;91.40
15013;DHT22;7603;49.432;11.418;2023-09-18T08:15:38;25.30;91.20
15013;DHT22;7603;49.432;11.418;2023-09-18T08:18:07;25.60;90.90
15013;DHT22;7603;49.432;11.418;2023-09-18T08:20:32;26.00;89.40
15013;DHT22;7603;49.432;11.418;2023-09-18T08:22:59;26.40;85.90
15013;DHT22;7603;49.432;11.418;2023-09-18T08:25:28;26.90;82.80
15013;DHT22;7603;49.432;11.418;2023-09-18T08:27:54;27.40;80.30
15013;DHT22;7603;49.432;11.418;2023-09-18T08:30:20;27.90;77.60
15013;DHT22;7603;49.432;11.418;2023-09-18T08:32:48;28.30;75.10
15013;DHT22;7603;49.432;11.418;2023-09-18T08:35:14;28.70;73.00
15013;DHT22;7603;49.432;11.418;2023-09-18T08:37:41;29.00;71.90
15013;DHT22;7603;49.432;11.418;2023-09-18T08:40:11;29.20;70.20
15013;DHT22;7603;49.432;11.418;2023-09-18T08:42:40;29.60;68.30
15013;DHT22;7603;49.432;11.418;2023-09-18T08:45:10;29.90;66.10
15013;DHT22;7603;49.432;11.418;2023-09-18T08:47:39;30.30;64.50
15013;DHT22;7603;49.432;11.418;2023-09-18T08:50:08;30.80;63.40
15013;DHT22;7603;49.432;11.418;2023-09-18T08:52:36;31.30;60.90
15013;DHT22;7603;49.432;11.418;2023-09-18T08:55:03;31.80;59.00
15013;DHT22;7603;49.432;11.418;2023-09-18T08:57:30;32.40;57.90
15013;DHT22;7603;49.432;11.418;2023-09-18T08:59:56;33.00;56.40
15013;DHT22;7603;49.432;11.418;2023-09-18T09:02:23;33.50;55.10
15013;DHT22;7603;49.432;11.418;2023-09-18T09:04:50;34.00;53.50
15013;DHT22;7603;49.432;11.418;2023-09-18T09:07:16;34.60;52.30
15013;DHT22;7603;49.432;11.418;2023-09-18T09:09:41;35.20;51.00
15013;DHT22;7603;49.432;11.418;2023-09-18T09:12:08;35.80;49.80
15013;DHT22;7603;49.432;11.418;2023-09-18T09:14:33;36.20;48.80
15013;DHT22;7603;49.432;11.418;2023-09-18T09:16:59;36.50;47.70
15013;DHT22;7603;49.432;11.418;2023-09-18T09:19:33;36.90;46.90
15013;DHT22;7603;49.432;11.418;2023-09-18T09:22:02;37.40;45.40
15013;DHT22;7603;49.432;11.418;2023-09-18T09:24:42;37.90;44.60
15013;DHT22;7603;49.432;11.418;2023-09-18T09:27:09;38.20;42.40
15013;DHT22;7603;49.432;11.418;2023-09-18T09:29:34;38.00;42.00
15013;DHT22;7603;49.432;11.418;2023-09-18T09:32:17;37.90;41.10
15013;DHT22;7603;49.432;11.418;2023-09-18T09:34:44;37.70;40.30
15013;DHT22;7603;49.432;11.418;2023-09-18T09:37:10;37.20;40.50
15013;DHT22;7603;49.432;11.418;2023-09-18T09:39:56;36.60;41.60
15013;DHT22;7603;49.432;11.418;2023-09-18T09:42:22;35.80;42.10
15013;DHT22;7603;49.432;11.418;2023-09-18T09:45:02;35.60;43.00
15013;DHT22;7603;49.432;11.418;2023-09-18T09:47:35;35.80;43.10
15013;DHT22;7603;49.432;11.418;2023-09-18T09:50:11;35.90;42.50
15013;DHT22;7603;49.432;11.418;2023-09-18T09:52:49;35.50;41.50
15013;DHT22;7603;49.432;11.418;2023-09-18T09:55:19;35.10;41.80
15013;DHT22;7603;49.432;11.418;2023-09-18T09:57:58;35.00;41.60
15013;DHT22;7603;49.432;11.418;2023-09-18T10:00:39;35.30;42.10
15013;DHT22;7603;49.432;11.418;2023-09-18T10:03:10;36.10;40.50
15013;DHT22;7603;49.432;11.418;2023-09-18T10:05:41;36.60;39.70
15013;DHT22;7603;49.432;11.418;2023-09-18T10:08:12;36.70;39.60
15013;DHT22;7603;49.432;11.418;2023-09-18T10:10:41;36.70;39.20
15013;DHT22;7603;49.432;11.418;2023-09-18T10:16:07;36.40;39.90
15013;DHT22;7603;49.432;11.418;2023-09-18T10:18:45;36.00;40.50
15013;DHT22;7603;49.432;11.418;2023-09-18T10:21:39;35.30;41.40
15013;DHT22;7603;49.432;11.418;2023-09-18T10:26:44;34.70;42.60
15013;DHT22;7603;49.432;11.418;2023-09-18T10:29:14;34.70;43.20
15013;DHT22;7603;49.432;11.418;2023-09-18T10:31:41;35.20;43.20
15013;DHT22;7603;49.432;11.418;2023-09-18T10:34:09;36.40;41.90
15013;DHT22;7603;49.432;11.418;2023-09-18T10:36:36;37.80;40.20
15013;DHT22;7603;49.432;11.418;2023-09-18T10:39:03;38.60;38.70
15013;DHT22;7603;49.432;11.418;2023-09-18T10:41:33;39.30;37.10
15013;DHT22;7603;49.432;11.418;2023-09-18T10:44:00;39.80;36.00
15013;DHT22;7603;49.432;11.418;2023-09-18T10:46:26;39.20;35.70
15013;DHT22;7603;49.432;11.418;2023-09-18T10:48:53;38.50;36.80
15013;DHT22;7603;49.432;11.418;2023-09-18T10:51:23;37.40;38.20
15013;DHT22;7603;49.432;11.418;2023-09-18T10:53:49;36.40;39.30
15013;DHT22;7603;49.432;11.418;2023-09-18T10:56:20;35.70;40.60
15013;DHT22;7603;49.432;11.418;2023-09-18T10:58:45;35.20;41.50
15013;DHT22;7603;49.432;11.418;2023-09-18T11:01:12;34.50;42.50
15013;DHT22;7603;49.432;11.418;2023-09-18T11:03:38;33.70;43.90
15013;DHT22;7603;49.432;11.418;2023-09-18T11:06:11;33.00;44.90
15013;DHT22;7603;49.432;11.418;2023-09-18T11:08:44;32.20;46.20
15013;DHT22;7603;49.432;11.418;2023-09-18T11:11:11;31.60;47.40
15013;DHT22;7603;49.432;11.418;2023-09-18T11:13:47;31.20;48.40
15013;DHT22;7603;49.432;11.418;2023-09-18T11:18:54;30.40;50.70
15013;DHT22;7603;49.432;11.418;2023-09-18T11:21:32;30.30;51.40
15013;DHT22;7603;49.432;11.418;2023-09-18T11:24:01;30.50;51.10
15013;DHT22;7603;49.432;11.418;2023-09-18T11:26:30;30.50;50.90
15013;DHT22;7603;49.432;11.418;2023-09-18T11:29:05;30.20;50.60
15013;DHT22;7603;49.432;11.418;2023-09-18T11:31:47;30.10;51.30
15013;DHT22;7603;49.432;11.418;2023-09-18T11:34:24;29.90;51.60
15013;DHT22;7603;49.432;11.418;2023-09-18T11:36:57;30.00;51.80
15013;DHT22;7603;49.432;11.418;2023-09-18T11:42:17;29.40;52.80
15013;DHT22;7603;49.432;11.418;2023-09-18T11:44:43;29.40;53.30
15013;DHT22;7603;49.432;11.418;2023-09-18T11:47:13;29.90;52.80
15013;DHT22;7603;49.432;11.418;2023-09-18T11:49:55;30.60;52.10
15013;DHT22;7603;49.432;11.418;2023-09-18T11:52:27;31.10;50.90
15013;DHT22;7603;49.432;11.418;2023-09-18T11:54:55;31.00;50.30
15013;DHT22;7603;49.432;11.418;2023-09-18T11:57:21;30.30;50.60
15013;DHT22;7603;49.432;11.418;2023-09-18T11:59:47;29.70;51.70
15013;DHT22;7603;49.432;11.418;2023-09-18T12:02:17;29.30;52.70
15013;DHT22;7603;49.432;11.418;2023-09-18T12:04:56;29.00;53.90
15013;DHT22;7603;49.432;11.418;2023-09-18T12:07:22;28.60;53.60
15013;DHT22;7603;49.432;11.418;2023-09-18T12:09:48;28.40;53.70
15013;DHT22;7603;49.432;11.418;2023-09-18T12:12:15;28.30;54.10
15013;DHT22;7603;49.432;11.418;2023-09-18T12:14:41;28.10;54.40
15013;DHT22;7603;49.432;11.418;2023-09-18T12:17:16;27.80;54.70
15013;DHT22;7603;49.432;11.418;2023-09-18T12:19:51;27.50;57.20
15013;DHT22;7603;49.432;11.418;2023-09-18T12:22:23;27.10;56.50
15013;DHT22;7603;49.432;11.418;2023-09-18T12:24:49;26.70;56.80
15013;DHT22;7603;49.432;11.418;2023-09-18T12:27:15;26.30;58.20
15013;DHT22;7603;49.432;11.418;2023-09-18T12:29:42;26.00;58.50
15013;DHT22;7603;49.432;11.418;2023-09-18T12:32:11;25.70;59.40
15013;DHT22;7603;49.432;11.418;2023-09-18T12:34:43;25.50;61.00
15013;DHT22;7603;49.432;11.418;2023-09-18T12:37:09;25.30;62.20
15013;DHT22;7603;49.432;11.418;2023-09-18T12:39:37;25.20;64.20
15013;DHT22;7603;49.432;11.418;2023-09-18T12:42:03;25.10;66.10
15013;DHT22;7603;49.432;11.418;2023-09-18T12:44:29;24.90;67.60
15013;DHT22;7603;49.432;11.418;2023-09-18T12:46:55;24.70;70.20
15013;DHT22;7603;49.432;11.418;2023-09-18T12:49:22;24.50;72.20
15013;DHT22;7603;49.432;11.418;2023-09-18T12:52:02;24.20;75.80
15013;DHT22;7603;49.432;11.418;2023-09-18T12:54:41;23.90;76.30
15013;DHT22;7603;49.432;11.418;2023-09-18T12:57:08;23.50;77.90
15013;DHT22;7603;49.432;11.418;2023-09-18T12:59:35;23.20;80.20
15013;DHT22;7603;49.432;11.418;2023-09-18T13:02:05;22.90;82.00
15013;DHT22;7603;49.432;11.418;2023-09-18T13:04:32;22.50;87.60
15013;DHT22;7603;49.432;11.418;2023-09-18T13:07:07;22.10;89.10
15013;DHT22;7603;49.432;11.418;2023-09-18T13:09:33;21.90;91.00
15013;DHT22;7603;49.432;11.418;2023-09-18T13:12:00;21.80;91.80
15013;DHT22;7603;49.432;11.418;2023-09-18T13:14:26;21.70;92.90
15013;DHT22;7603;49.432;11.418;2023-09-18T13:16:52;21.60;94.70
15013;DHT22;7603;49.432;11.418;2023-09-18T13:19:18;21.50;94.80
15013;DHT22;7603;49.432;11.418;2023-09-18T13:21:49;21.50;95.80
15013;DHT22;7603;49.432;11.418;2023-09-18T13:24:44;21.40;98.50
15013;DHT22;7603;49.432;11.418;2023-09-18T13:27:10;21.10;99.90
15013;DHT22;7603;49.432;11.418;2023-09-18T13:29:36;20.70;99.90
15013;DHT22;7603;49.432;11.418;2023-09-18T13:32:02;20.50;99.90
15013;DHT22;7603;49.432;11.418;2023-09-18T13:34:29;20.40;99.90
15013;DHT22;7603;49.432;11.418;2023-09-18T13:36:56;20.30;99.90
15013;DHT22;7603;49.432;11.418;2023-09-18T13:39:22;20.00;99.90
15013;DHT22;7603;49.432;11.418;2023-09-18T13:41:48;19.70;99.90
15013;DHT22;7603;49.432;11.418;2023-09-18T13:44:13;19.40;99.90
15013;DHT22;7603;49.432;11.418;2023-09-18T13:46:39;19.10;99.90
15013;DHT22;7603;49.432;11.418;2023-09-18T13:49:04;18.90;99.90
15013;DHT22;7603;49.432;11.418;2023-09-18T13:51:33;18.90;99.90
15013;DHT22;7603;49.432;11.418;2023-09-18T13:53:59;18.90;99.90
15013;DHT22;7603;49.432;11.418;2023-09-18T13:56:25;18.80;99.90
15013;DHT22;7603;49.432;11.418;2023-09-18T13:58:54;18.60;99.90
15013;DHT22;7603;49.432;11.418;2023-09-18T14:01:21;18.40;99.90
15013;DHT22;7603;49.432;11.418;2023-09-18T14:03:47;18.30;99.90
15013;DHT22;7603;49.432;11.418;2023-09-18T14:06:12;18.30;99.90
15013;DHT22;7603;49.432;11.418;2023-09-18T14:08:38;18.20;99.90
15013;DHT22;7603;49.432;11.418;2023-09-18T14:11:05;18.10;99.90
15013;DHT22;7603;49.432;11.418;2023-09-18T14:13:32;18.10;99.90
15013;DHT22;7603;49.432;11.418;2023-09-18T14:15:58;18.10;99.90
15013;DHT22;7603;49.432;11.418;2023-09-18T14:18:23;18.10;99.90
15013;DHT22;7603;49.432;11.418;2023-09-18T14:20:49;18.10;99.90
15013;DHT22;7603;49.432;11.418;2023-09-18T14:23:15;18.20;99.90
15013;DHT22;7603;49.432;11.418;2023-09-18T14:25:40;18.20;99.90
15013;DHT22;7603;49.432;11.418;2023-09-18T14:28:07;18.20;99.90
15013;DHT22;7603;49.432;11.418;2023-09-18T14:30:33;18.20;99.90
15013;DHT22;7603;49.432;11.418;2023-09-18T14:32:59;18.30;99.90
15013;DHT22;7603;49.432;11.418;2023-09-18T14:35:26;18.30;99.90
15013;DHT22;7603;49.432;11.418;2023-09-18T14:37:52;18.30;99.90
15013;DHT22;7603;49.432;11.418;2023-09-18T14:40:18;18.30;99.90
15013;DHT22;7603;49.432;11.418;2023-09-18T14:42:46;18.30;99.90
15013;DHT22;7603;49.432;11.418;2023-09-18T14:45:12;18.20;99.90
15013;DHT22;7603;49.432;11.418;2023-09-18T14:47:38;18.20;99.90
15013;DHT22;7603;49.432;11.418;2023-09-18T14:50:04;18.10;99.90
15013;DHT22;7603;49.432;11.418;2023-09-18T14:52:30;18.00;99.90
15013;DHT22;7603;49.432;11.418;2023-09-18T14:54:58;17.90;99.90
15013;DHT22;7603;49.432;11.418;2023-09-18T14:57:25;17.80;99.90
15013;DHT22;7603;49.432;11.418;2023-09-18T14:59:52;17.80;99.90
15013;DHT22;7603;49.432;11.418;2023-09-18T15:02:17;17.70;99.90
15013;DHT22;7603;49.432;11.418;2023-09-18T15:04:44;17.70;99.90
15013;DHT22;7603;49.432;11.418;2023-09-18T15:07:09;17.70;99.90
15013;DHT22;7603;49.432;11.418;2023-09-18T15:09:36;17.70;99.90
15013;DHT22;7603;49.432;11.418;2023-09-18T15:12:02;17.70;99.90
15013;DHT22;7603;49.432;11.418;2023-09-18T15:14:28;17.60;99.90
15013;DHT22;7603;49.432;11.418;2023-09-18T15:16:54;17.60;99.90
15013;DHT22;7603;49.432;11.418;2023-09-18T15:19:21;17.50;99.90
15013;DHT22;7603;49.432;11.418;2023-09-18T15:21:47;17.50;99.90
15013;DHT22;7603;49.432;11.418;2023-09-18T15:24:13;17.50;99.90
15013;DHT22;7603;49.432;11.418;2023-09-18T15:26:38;17.50;99.90
15013;DHT22;7603;49.432;11.418;2023-09-18T15:29:04;17.50;99.90
15013;DHT22;7603;49.432;11.418;2023-09-18T15:31:30;17.50;99.90
15013;DHT22;7603;49.432;11.418;2023-09-18T15:33:55;17.60;99.90
15013;DHT22;7603;49.432;11.418;2023-09-18T15:36:21;17.70;99.90
15013;DHT22;7603;49.432;11.418;2023-09-18T15:38:48;17.80;99.90
15013;DHT22;7603;49.432;11.418;2023-09-18T15:41:15;17.80;99.90
15013;DHT22;7603;49.432;11.418;2023-09-18T15:43:41;17.90;99.90
15013;DHT22;7603;49.432;11.418;2023-09-18T15:46:06;18.10;99.90
15013;DHT22;7603;49.432;11.418;2023-09-18T15:48:32;18.10;99.90
15013;DHT22;7603;49.432;11.418;2023-09-18T15:50:58;18.20;99.90